Time;durP1;ratioP1;P1;durP2;ratioP2;P2;SDS_P1;SDS_P2;PMS_P1;PMS_P2;Temp;Humidity;BMP_temperature;BMP_pressure;BME280_temperature;BME280_humidity;BME280_pressure;Samples;Min_cycle;Max_cycle;Signal;HPM_P1;HPM_P2
2021/09/04 00:01:51;;;;;;;1.15;0.60;;;16.90;51.40;;;;;;4971792;28;20240;-55
2021/09/04 00:04:21;;;;;;;2.22;0.75;;;17.00;51.70;;;;;;4971579;28;20228;-55
2021/09/04 00:06:54;;;;;;;1.33;0.65;;;17.00;51.80;;;;;;4974263;28;20229;-54
2021/09/04 00:09:24;;;;;;;1.48;0.60;;;17.10;52.00;;;;;;4971317;28;20350;-55
2021/09/04 00:11:55;;;;;;;2.40;0.85;;;17.10;52.60;;;;;;4971790;28;20355;-56
2021/09/04 00:14:25;;;;;;;1.63;1.13;;;17.20;52.20;;;;;;4971910;28;20288;-51
2021/09/04 00:16:56;;;;;;;5.30;1.80;;;17.20;52.30;;;;;;4971809;28;20234;-52
2021/09/04 00:19:26;;;;;;;3.30;1.45;;;17.30;52.40;;;;;;4971324;28;20635;-55
2021/09/04 00:21:59;;;;;;;4.15;1.70;;;17.30;52.40;;;;;;4971584;28;20706;-54
2021/09/04 00:24:29;;;;;;;5.30;1.90;;;17.30;52.50;;;;;;5015874;23;20248;-42
2021/09/04 00:27:00;;;;;;;6.25;1.63;;;17.40;52.60;;;;;;5010554;28;20276;-40
2021/09/04 00:29:30;;;;;;;5.50;2.03;;;17.50;52.60;;;;;;5010474;28;20304;-46
2021/09/04 00:32:00;;;;;;;4.70;2.17;;;17.50;52.60;;;;;;5010801;28;20716;-44
2021/09/04 00:34:31;;;;;;;5.55;2.10;;;17.50;52.60;;;;;;5010091;28;20236;-40
2021/09/04 00:37:03;;;;;;;4.88;1.83;;;17.50;52.60;;;;;;5012456;28;20271;-42
2021/09/04 00:39:34;;;;;;;4.65;1.85;;;17.60;52.70;;;;;;5012832;28;20228;-42
2021/09/04 00:42:04;;;;;;;5.25;1.88;;;17.60;52.60;;;;;;5013482;28;20228;-41
2021/09/04 00:44:34;;;;;;;4.75;2.08;;;17.70;52.60;;;;;;5014043;28;20452;-45
2021/09/04 00:47:05;;;;;;;4.95;1.85;;;17.70;52.60;;;;;;5014000;28;20695;-45
2021/09/04 00:49:36;;;;;;;6.20;1.73;;;17.80;52.50;;;;;;5012983;28;20249;-41
2021/09/04 00:52:09;;;;;;;5.63;2.13;;;17.80;52.50;;;;;;5013469;28;20538;-43
2021/09/04 00:54:40;;;;;;;3.80;1.83;;;17.80;52.50;;;;;;5013813;28;20278;-43
2021/09/04 00:57:11;;;;;;;3.67;1.55;;;17.90;52.40;;;;;;5014030;28;20240;-42
2021/09/04 00:59:41;;;;;;;3.78;1.75;;;17.90;52.40;;;;;;5013575;28;20259;-41
2021/09/04 01:02:11;;;;;;;2.53;1.40;;;18.00;52.40;;;;;;5013785;28;20734;-40
2021/09/04 01:04:42;;;;;;;5.25;2.30;;;18.00;52.30;;;;;;5013468;28;20238;-43
2021/09/04 01:07:14;;;;;;;4.97;1.52;;;18.00;52.30;;;;;;5012960;28;20296;-46
2021/09/04 01:09:45;;;;;;;3.92;1.65;;;18.10;52.30;;;;;;5012814;28;20308;-50
2021/09/04 01:12:15;;;;;;;2.90;1.52;;;18.10;52.20;;;;;;5012492;28;20248;-50
2021/09/04 01:14:46;;;;;;;3.33;1.48;;;18.20;52.10;;;;;;5012618;28;20197;-43
2021/09/04 01:17:16;;;;;;;3.35;1.70;;;18.20;52.00;;;;;;5010391;28;20242;-52
2021/09/04 01:19:46;;;;;;;3.47;1.52;;;18.20;51.90;;;;;;5012835;28;20253;-45
2021/09/04 01:22:21;;;;;;;3.13;1.40;;;18.20;51.80;;;;;;5012663;28;20236;-55
2021/09/04 01:24:52;;;;;;;3.42;1.60;;;18.30;51.70;;;;;;5012152;28;20382;-42
2021/09/04 01:27:25;;;;;;;2.83;1.15;;;18.30;51.50;;;;;;5011205;28;20283;-45
2021/09/04 01:29:55;;;;;;;4.57;1.58;;;18.30;51.40;;;;;;5011782;28;20304;-40
2021/09/04 01:32:25;;;;;;;2.67;1.20;;;18.30;51.30;;;;;;5012249;28;20224;-43
2021/09/04 01:34:56;;;;;;;3.47;1.67;;;18.30;51.20;;;;;;5012455;28;20292;-42
2021/09/04 01:37:26;;;;;;;3.90;1.50;;;18.40;51.30;;;;;;5012193;28;20238;-44
2021/09/04 01:39:57;;;;;;;2.28;1.42;;;18.40;51.30;;;;;;5011225;28;20299;-43
2021/09/04 01:42:29;;;;;;;2.65;1.30;;;18.40;51.30;;;;;;5010655;28;20280;-53
2021/09/04 01:44:59;;;;;;;2.33;1.00;;;18.50;51.30;;;;;;5011399;28;20228;-46
2021/09/04 01:47:30;;;;;;;3.05;1.20;;;18.50;51.30;;;;;;5011070;28;20284;-49
2021/09/04 01:50:00;;;;;;;3.13;1.52;;;18.50;51.20;;;;;;5010073;28;20304;-54
2021/09/04 01:52:31;;;;;;;1.98;1.20;;;18.50;51.20;;;;;;5010704;28;20216;-49
2021/09/04 01:55:01;;;;;;;1.48;0.90;;;18.60;51.20;;;;;;5011399;28;20378;-48
2021/09/04 01:57:33;;;;;;;1.67;1.10;;;18.60;51.20;;;;;;5011701;28;20201;-46
2021/09/04 02:00:04;;;;;;;2.80;1.50;;;18.60;51.10;;;;;;5012347;28;20260;-46
2021/09/04 02:02:35;;;;;;;3.30;1.10;;;18.60;50.90;;;;;;5011672;28;20240;-51
2021/09/04 02:05:05;;;;;;;2.60;1.30;;;18.60;50.80;;;;;;5011145;28;20284;-46
2021/09/04 02:07:36;;;;;;;1.23;0.98;;;18.70;50.90;;;;;;5010254;28;20283;-46
2021/09/04 02:10:07;;;;;;;1.98;1.00;;;18.70;50.80;;;;;;5011710;28;20264;-48
2021/09/04 02:12:39;;;;;;;1.88;1.20;;;18.70;50.80;;;;;;5011475;28;20259;-40
2021/09/04 02:15:10;;;;;;;1.65;1.25;;;18.80;50.90;;;;;;5012096;28;20237;-47
2021/09/04 02:17:41;;;;;;;2.13;1.02;;;18.80;50.70;;;;;;5010958;28;20236;-41
2021/09/04 02:20:12;;;;;;;1.83;1.30;;;18.80;50.60;;;;;;5011975;28;20248;-45
2021/09/04 02:22:42;;;;;;;2.00;1.33;;;18.90;50.70;;;;;;5022822;23;20220;-60
2021/09/04 02:25:13;;;;;;;2.40;1.10;;;18.90;50.70;;;;;;4972448;28;20305;-56
2021/09/04 02:27:45;;;;;;;1.77;1.00;;;18.90;50.60;;;;;;4971568;28;20667;-56
2021/09/04 02:30:16;;;;;;;1.13;0.90;;;18.90;50.60;;;;;;4972529;28;20615;-47
2021/09/04 02:32:46;;;;;;;1.40;1.00;;;19.00;50.70;;;;;;4972618;28;20670;-51
2021/09/04 02:35:17;;;;;;;3.35;1.20;;;19.00;50.70;;;;;;4972021;28;20316;-49
2021/09/04 02:37:47;;;;;;;2.33;1.00;;;19.00;50.60;;;;;;4972496;28;20248;-55
2021/09/04 02:40:18;;;;;;;1.45;1.17;;;19.10;50.60;;;;;;4971273;28;20249;-47
2021/09/04 02:42:50;;;;;;;1.80;1.27;;;19.10;50.70;;;;;;4971585;28;20727;-52
2021/09/04 02:45:20;;;;;;;1.67;1.05;;;19.10;50.60;;;;;;4971810;28;20277;-58
2021/09/04 02:47:51;;;;;;;1.20;1.00;;;19.20;50.50;;;;;;4971731;28;20226;-53
2021/09/04 02:50:21;;;;;;;2.17;1.02;;;19.20;50.40;;;;;;4971710;28;20312;-55
2021/09/04 02:52:52;;;;;;;1.65;0.95;;;19.20;50.40;;;;;;4973023;28;20194;-48
2021/09/04 02:55:22;;;;;;;1.35;0.90;;;19.30;50.40;;;;;;4972251;28;20240;-45
2021/09/04 02:57:55;;;;;;;1.75;0.88;;;19.30;50.40;;;;;;4971941;28;20229;-52
2021/09/04 03:00:25;;;;;;;1.23;1.00;;;19.40;51.00;;;;;;4972212;28;20302;-44
2021/09/04 03:02:55;;;;;;;0.98;0.90;;;19.40;50.40;;;;;;4972272;28;20236;-49
2021/09/04 03:05:26;;;;;;;1.48;0.90;;;19.40;50.40;;;;;;4972193;28;20306;-43
2021/09/04 03:07:56;;;;;;;1.85;0.90;;;19.40;50.40;;;;;;4972243;28;20439;-46
2021/09/04 03:10:27;;;;;;;1.10;0.80;;;19.50;50.50;;;;;;4971826;28;20652;-43
2021/09/04 03:12:59;;;;;;;1.75;0.90;;;19.50;50.50;;;;;;4971664;28;20241;-43
2021/09/04 03:15:29;;;;;;;1.13;0.88;;;19.50;50.50;;;;;;4971873;28;20233;-46
2021/09/04 03:18:00;;;;;;;2.10;1.00;;;19.60;50.60;;;;;;4971871;28;20281;-44
2021/09/04 03:20:30;;;;;;;1.25;1.00;;;19.60;50.50;;;;;;4971483;28;20253;-43
2021/09/04 03:23:01;;;;;;;1.23;0.82;;;19.60;51.10;;;;;;4972373;28;20289;-43
2021/09/04 03:25:31;;;;;;;1.13;0.85;;;19.60;50.50;;;;;;4972314;28;20229;-44
2021/09/04 03:28:03;;;;;;;1.77;1.15;;;19.70;50.50;;;;;;4972181;28;20714;-44
2021/09/04 03:30:34;;;;;;;1.35;0.90;;;19.70;50.50;;;;;;4972192;28;20253;-43
2021/09/04 03:33:04;;;;;;;1.00;0.80;;;19.80;50.40;;;;;;4972245;28;20413;-43
2021/09/04 03:35:35;;;;;;;1.25;0.70;;;19.80;50.40;;;;;;4972043;28;20244;-45
2021/09/04 03:38:05;;;;;;;0.82;0.70;;;19.80;50.30;;;;;;4972260;28;20237;-48
2021/09/04 03:40:36;;;;;;;0.98;0.75;;;19.80;50.20;;;;;;4972274;28;20254;-43
2021/09/04 03:43:08;;;;;;;1.08;0.75;;;19.90;50.30;;;;;;4971924;28;20234;-48
2021/09/04 03:45:38;;;;;;;2.85;0.80;;;19.90;50.30;;;;;;4971859;28;20271;-51
2021/09/04 03:48:09;;;;;;;1.02;0.70;;;19.90;50.20;;;;;;4971608;28;20230;-46
2021/09/04 03:50:39;;;;;;;1.15;0.85;;;20.00;50.20;;;;;;4968356;28;20350;-46
2021/09/04 03:53:10;;;;;;;1.08;0.70;;;20.00;50.20;;;;;;4972151;28;20285;-45
2021/09/04 03:55:40;;;;;;;1.15;0.70;;;20.00;50.20;;;;;;4971943;28;20230;-66
2021/09/04 03:58:12;;;;;;;1.05;0.75;;;20.10;50.10;;;;;;4971779;28;20202;-44
2021/09/04 04:00:43;;;;;;;2.28;0.90;;;20.10;50.00;;;;;;4971504;28;20254;-43
2021/09/04 04:03:13;;;;;;;1.00;0.60;;;20.20;49.70;;;;;;4971570;28;20237;-51
2021/09/04 04:05:44;;;;;;;1.33;0.80;;;20.10;49.20;;;;;;4971391;28;20240;-53
2021/09/04 04:08:14;;;;;;;2.30;0.80;;;20.20;49.00;;;;;;4971639;28;20253;-44
2021/09/04 04:10:45;;;;;;;4.55;0.80;;;20.20;48.60;;;;;;4969936;28;20651;-56
2021/09/04 04:13:17;;;;;;;3.75;0.80;;;20.20;48.30;;;;;;4975587;28;20723;-56
2021/09/04 04:15:48;;;;;;;1.30;0.90;;;20.30;48.30;;;;;;4975324;28;20679;-58
2021/09/04 04:18:18;;;;;;;0.93;0.73;;;20.30;48.10;;;;;;4975164;28;20297;-54
2021/09/04 04:20:48;;;;;;;1.20;0.75;;;20.30;48.00;;;;;;4975038;28;20264;-51
2021/09/04 04:23:19;;;;;;;3.28;0.80;;;20.30;48.00;;;;;;4975707;28;20250;-57
2021/09/04 04:25:50;;;;;;;2.05;0.80;;;20.40;48.10;;;;;;4975498;28;20234;-63
2021/09/04 04:28:22;;;;;;;1.00;0.68;;;20.40;48.00;;;;;;4975139;28;20202;-54
2021/09/04 04:30:53;;;;;;;1.05;0.70;;;20.40;47.80;;;;;;4974955;28;20221;-53
2021/09/04 04:33:23;;;;;;;1.02;0.90;;;20.40;47.80;;;;;;4974864;28;20234;-53
2021/09/04 04:35:54;;;;;;;2.13;0.77;;;20.30;47.60;;;;;;4974970;28;20226;-53
2021/09/04 04:38:24;;;;;;;1.00;0.75;;;20.30;47.50;;;;;;4975040;28;20257;-44
2021/09/04 04:40:54;;;;;;;0.93;0.68;;;20.30;47.50;;;;;;4974883;28;20650;-51
2021/09/04 04:43:27;;;;;;;1.73;0.60;;;20.30;47.60;;;;;;4975206;28;20769;-50
2021/09/04 04:45:57;;;;;;;1.20;0.80;;;20.30;47.60;;;;;;4975360;28;20285;-45
2021/09/04 04:48:28;;;;;;;2.17;0.95;;;20.30;47.90;;;;;;4974167;28;20622;-48
2021/09/04 04:50:58;;;;;;;0.82;0.68;;;20.30;47.90;;;;;;4974282;28;20218;-48
2021/09/04 04:53:29;;;;;;;2.42;0.90;;;20.30;47.90;;;;;;4975081;28;20285;-45
2021/09/04 04:56:00;;;;;;;1.05;0.70;;;20.30;47.90;;;;;;4972491;28;20281;-48
2021/09/04 04:58:33;;;;;;;1.00;0.60;;;20.30;48.00;;;;;;4974461;28;20210;-48
2021/09/04 05:01:03;;;;;;;1.02;0.70;;;20.30;47.90;;;;;;4974451;28;20225;-49
2021/09/04 05:03:33;;;;;;;0.63;0.63;;;20.40;47.90;;;;;;4975052;28;20301;-45
2021/09/04 05:06:04;;;;;;;1.95;0.88;;;20.40;47.80;;;;;;4974634;28;20667;-53
2021/09/04 05:08:34;;;;;;;2.45;0.70;;;20.30;47.70;;;;;;4974241;28;20289;-50
2021/09/04 05:11:05;;;;;;;0.93;0.70;;;20.30;47.80;;;;;;4974537;28;20285;-53
2021/09/04 05:13:37;;;;;;;0.98;0.77;;;20.40;47.80;;;;;;4974838;28;20507;-53
2021/09/04 05:16:08;;;;;;;0.95;0.68;;;20.40;47.90;;;;;;4975317;28;20265;-49
2021/09/04 05:18:38;;;;;;;1.25;0.80;;;20.40;48.00;;;;;;4974189;28;20281;-46
2021/09/04 05:21:09;;;;;;;0.75;0.70;;;20.30;48.00;;;;;;4974204;28;20229;-45
2021/09/04 05:23:39;;;;;;;2.30;0.80;;;20.40;48.00;;;;;;4975049;28;20249;-47
2021/09/04 05:26:10;;;;;;;0.95;0.80;;;20.30;48.00;;;;;;4974233;28;20297;-50
2021/09/04 05:28:42;;;;;;;0.90;0.60;;;20.40;48.20;;;;;;4972802;28;20452;-48
2021/09/04 05:31:13;;;;;;;0.95;0.88;;;20.40;48.20;;;;;;4973915;28;20237;-47
2021/09/04 05:33:43;;;;;;;0.80;0.70;;;20.40;48.30;;;;;;4973777;28;20241;-44
2021/09/04 05:36:14;;;;;;;1.25;0.70;;;20.30;48.20;;;;;;4973413;28;20610;-50
2021/09/04 05:38:44;;;;;;;1.25;0.90;;;20.30;48.20;;;;;;4973893;28;20210;-48
2021/09/04 05:41:14;;;;;;;0.77;0.75;;;20.30;48.20;;;;;;4974131;28;20648;-44
2021/09/04 05:43:47;;;;;;;1.42;0.70;;;20.30;48.20;;;;;;4973079;28;20602;-46
2021/09/04 05:46:17;;;;;;;0.77;0.70;;;20.30;48.10;;;;;;4972910;28;20202;-47
2021/09/04 05:48:47;;;;;;;1.80;0.98;;;20.30;48.10;;;;;;4973576;28;20612;-52
2021/09/04 05:51:18;;;;;;;1.52;0.70;;;20.30;48.20;;;;;;4957494;28;20672;-47
2021/09/04 05:53:48;;;;;;;0.73;0.73;;;20.30;48.20;;;;;;4954136;28;20238;-49
2021/09/04 05:56:19;;;;;;;1.55;0.85;;;20.30;48.20;;;;;;4954322;28;20226;-53
2021/09/04 05:58:51;;;;;;;2.13;0.70;;;20.20;48.20;;;;;;4954111;28;20245;-49
2021/09/04 06:01:21;;;;;;;0.82;0.73;;;20.20;48.20;;;;;;4953797;28;20663;-46
2021/09/04 06:03:52;;;;;;;0.75;0.60;;;20.20;48.30;;;;;;4953914;28;20242;-48
2021/09/04 06:06:22;;;;;;;1.33;0.70;;;20.20;48.40;;;;;;4953817;28;20648;-46
2021/09/04 06:08:53;;;;;;;0.80;0.80;;;20.20;48.40;;;;;;4953768;28;20199;-48
2021/09/04 06:11:23;;;;;;;1.38;1.05;;;20.10;48.30;;;;;;4956535;28;20226;-48
2021/09/04 06:13:55;;;;;;;1.02;0.82;;;20.10;48.40;;;;;;4953892;28;20648;-52
2021/09/04 06:16:26;;;;;;;1.45;0.70;;;20.10;48.40;;;;;;4953602;28;20915;-54
2021/09/04 06:18:57;;;;;;;1.10;0.77;;;20.10;48.40;;;;;;4953426;28;20293;-51
2021/09/04 06:21:28;;;;;;;1.27;0.95;;;20.10;48.40;;;;;;4953597;28;20238;-54
2021/09/04 06:23:58;;;;;;;0.85;0.85;;;20.10;48.40;;;;;;4954227;28;20210;-48
2021/09/04 06:26:28;;;;;;;0.73;0.73;;;20.10;48.40;;;;;;4953759;28;20245;-51
2021/09/04 06:29:01;;;;;;;0.82;0.80;;;20.10;48.50;;;;;;4953801;28;20257;-50
2021/09/04 06:31:31;;;;;;;0.90;0.80;;;20.00;48.40;;;;;;4953739;28;20238;-43
2021/09/04 06:34:02;;;;;;;1.25;0.90;;;20.00;48.40;;;;;;4952996;28;20735;-50
2021/09/04 06:36:33;;;;;;;1.90;0.90;;;20.00;49.10;;;;;;4953526;28;20675;-48
2021/09/04 06:39:03;;;;;;;0.93;0.70;;;20.00;48.50;;;;;;4953001;28;20250;-53
2021/09/04 06:41:34;;;;;;;1.33;0.80;;;19.90;48.60;;;;;;4953715;28;20203;-58
2021/09/04 06:44:06;;;;;;;0.80;0.80;;;19.90;48.60;;;;;;4953716;28;20343;-52
2021/09/04 06:46:37;;;;;;;1.05;0.95;;;19.90;48.50;;;;;;4953663;28;20214;-58
2021/09/04 06:49:07;;;;;;;0.70;0.70;;;19.90;48.60;;;;;;4953689;28;20215;-47
2021/09/04 06:51:39;;;;;;;1.30;1.00;;;19.90;48.60;;;;;;4953342;28;20236;-56
2021/09/04 06:54:10;;;;;;;1.00;1.00;;;19.80;48.60;;;;;;4952925;28;20285;-54
2021/09/04 06:56:40;;;;;;;1.00;0.80;;;19.80;48.50;;;;;;4953031;28;20237;-50
2021/09/04 06:59:13;;;;;;;1.00;0.90;;;19.80;48.50;;;;;;4953399;28;20219;-51
2021/09/04 07:01:43;;;;;;;1.60;0.82;;;19.80;48.50;;;;;;4953490;28;20226;-52
2021/09/04 07:04:13;;;;;;;0.90;0.90;;;19.70;48.40;;;;;;4953497;28;20290;-58
2021/09/04 07:06:44;;;;;;;1.02;0.95;;;19.70;48.40;;;;;;4953271;28;20293;-50
2021/09/04 07:09:15;;;;;;;1.52;0.80;;;19.70;48.50;;;;;;4953304;28;20214;-54
2021/09/04 07:11:45;;;;;;;1.27;0.80;;;19.70;48.70;;;;;;4953268;28;20246;-53
2021/09/04 07:14:17;;;;;;;1.30;0.90;;;19.70;48.80;;;;;;4952950;28;20234;-63
2021/09/04 07:16:49;;;;;;;1.17;1.08;;;19.60;48.70;;;;;;4952815;28;20238;-53
2021/09/04 07:19:21;;;;;;;1.98;0.90;;;19.60;48.60;;;;;;4953097;28;20254;-52
2021/09/04 07:21:52;;;;;;;1.45;1.00;;;19.60;48.70;;;;;;4952295;28;20682;-50
2021/09/04 07:24:22;;;;;;;1.30;1.13;;;19.60;48.70;;;;;;4952982;28;20207;-55
2021/09/04 07:26:52;;;;;;;2.75;1.42;;;19.50;48.70;;;;;;4952482;28;20367;-61
2021/09/04 07:29:25;;;;;;;0.82;0.82;;;19.50;48.70;;;;;;4952459;28;20219;-57
2021/09/04 07:31:55;;;;;;;1.15;0.90;;;19.50;48.80;;;;;;4952413;28;20237;-57
2021/09/04 07:34:26;;;;;;;1.00;0.90;;;19.50;48.70;;;;;;4952419;28;20664;-47
2021/09/04 07:36:56;;;;;;;1.33;0.93;;;19.40;48.60;;;;;;4952583;28;20618;-60
2021/09/04 07:39:26;;;;;;;1.50;1.10;;;19.40;48.60;;;;;;4952424;28;20945;-62
2021/09/04 07:41:57;;;;;;;1.20;0.98;;;19.40;48.60;;;;;;4952701;28;20699;-59
2021/09/04 07:44:29;;;;;;;1.10;0.90;;;19.40;48.50;;;;;;4953958;28;20618;-55
2021/09/04 07:47:00;;;;;;;1.27;0.90;;;19.40;48.60;;;;;;4956634;28;20266;-56
2021/09/04 07:49:30;;;;;;;1.08;0.88;;;19.40;48.50;;;;;;4956074;28;20254;-53
2021/09/04 07:52:01;;;;;;;1.17;0.90;;;19.40;48.50;;;;;;4955367;28;20436;-53
2021/09/04 07:54:31;;;;;;;1.05;0.90;;;19.30;48.50;;;;;;4956944;28;20250;-54
2021/09/04 07:57:02;;;;;;;1.45;0.90;;;19.30;48.50;;;;;;4964208;28;20230;-65
2021/09/04 07:59:34;;;;;;;1.85;0.98;;;19.30;48.50;;;;;;4975874;28;20281;-59
2021/09/04 08:02:05;;;;;;;1.90;1.00;;;19.30;48.90;;;;;;4975951;28;20402;-59
2021/09/04 08:04:35;;;;;;;1.75;1.10;;;19.20;48.60;;;;;;4975579;28;20233;-59
2021/09/04 08:07:06;;;;;;;1.52;1.10;;;19.20;48.60;;;;;;4975285;28;20237;-46
2021/09/04 08:09:36;;;;;;;1.95;1.00;;;19.20;48.70;;;;;;4972903;28;20300;-50
2021/09/04 08:12:07;;;;;;;1.40;1.08;;;19.20;48.70;;;;;;4956585;28;20257;-59
2021/09/04 08:14:39;;;;;;;1.65;1.00;;;19.20;48.80;;;;;;4956357;28;20231;-56
2021/09/04 08:17:11;;;;;;;1.88;1.17;;;19.20;48.70;;;;;;4955841;28;20331;-60
2021/09/04 08:19:41;;;;;;;1.70;0.93;;;19.20;48.70;;;;;;4955988;28;20250;-59
2021/09/04 08:22:12;;;;;;;1.95;0.90;;;19.10;48.70;;;;;;4954997;28;20234;-44
2021/09/04 08:24:44;;;;;;;3.15;1.27;;;19.10;48.80;;;;;;4955216;28;20241;-47
2021/09/04 08:27:14;;;;;;;0.98;0.85;;;19.10;48.90;;;;;;4955418;28;20286;-48
2021/09/04 08:29:47;;;;;;;1.20;1.02;;;19.10;48.90;;;;;;4954591;28;20246;-45
2021/09/04 08:32:18;;;;;;;1.45;1.00;;;19.10;48.90;;;;;;4960486;28;20238;-48
2021/09/04 08:34:48;;;;;;;2.15;1.23;;;19.10;48.90;;;;;;4974303;28;20225;-48
2021/09/04 08:37:19;;;;;;;1.42;1.00;;;19.10;48.90;;;;;;4973444;28;20198;-45
2021/09/04 08:39:50;;;;;;;0.98;0.95;;;19.00;48.80;;;;;;4973854;28;20250;-54
2021/09/04 08:42:20;;;;;;;1.05;0.95;;;19.00;48.90;;;;;;4973923;28;20260;-55
2021/09/04 08:44:52;;;;;;;1.65;1.10;;;19.00;48.90;;;;;;4974557;28;20194;-54
2021/09/04 08:47:23;;;;;;;1.30;0.80;;;19.00;49.00;;;;;;4974752;28;20234;-49
2021/09/04 08:49:55;;;;;;;1.55;1.10;;;19.00;48.90;;;;;;4973863;28;20277;-49
2021/09/04 08:52:25;;;;;;;2.72;1.02;;;18.90;48.90;;;;;;4974190;28;20233;-48
2021/09/04 08:54:55;;;;;;;1.40;1.20;;;18.90;48.90;;;;;;4973573;28;20237;-47
2021/09/04 08:57:26;;;;;;;2.83;1.13;;;18.90;49.00;;;;;;4972337;28;20284;-46
2021/09/04 08:59:59;;;;;;;1.75;1.05;;;18.90;49.00;;;;;;4974069;28;20320;-50
2021/09/04 09:02:30;;;;;;;1.20;1.05;;;18.80;49.00;;;;;;4973545;28;20206;-45
2021/09/04 09:05:05;;;;;;;1.10;1.00;;;18.80;49.00;;;;;;4974329;28;20255;-50
2021/09/04 09:07:43;;;;;;;2.08;0.80;;;18.80;49.00;;;;;;4973223;28;20676;-47
2021/09/04 09:10:33;;;;;;;0.98;0.90;;;18.80;49.00;;;;;;4974031;28;20261;-45
2021/09/04 09:13:03;;;;;;;1.38;0.90;;;18.80;49.00;;;;;;4973503;28;20205;-50
2021/09/04 09:15:36;;;;;;;2.42;0.98;;;18.80;49.00;;;;;;4973834;28;20237;-47
2021/09/04 09:18:09;;;;;;;1.00;0.90;;;18.80;49.00;;;;;;4972837;28;20253;-46
2021/09/04 09:20:40;;;;;;;1.20;1.10;;;18.80;49.00;;;;;;4973980;28;20218;-48
2021/09/04 09:23:12;;;;;;;1.30;0.95;;;18.80;49.00;;;;;;4973798;28;20238;-50
2021/09/04 09:25:42;;;;;;;1.20;0.93;;;18.70;49.00;;;;;;4973256;28;20202;-49
2021/09/04 09:28:13;;;;;;;1.02;0.80;;;18.70;49.10;;;;;;4973222;28;20745;-45
2021/09/04 09:30:46;;;;;;;1.23;1.02;;;18.70;49.00;;;;;;4972277;28;20226;-54
2021/09/04 09:33:17;;;;;;;1.17;1.08;;;18.70;49.00;;;;;;4973567;28;20202;-54
2021/09/04 09:35:48;;;;;;;0.80;0.80;;;18.60;49.10;;;;;;4973093;28;20344;-51
2021/09/04 09:38:18;;;;;;;1.52;0.90;;;18.60;49.10;;;;;;4972779;28;20257;-53
2021/09/04 09:40:49;;;;;;;1.00;0.90;;;18.60;49.20;;;;;;4972251;28;20264;-57
2021/09/04 09:43:22;;;;;;;1.13;0.75;;;18.60;49.20;;;;;;4973735;28;20198;-55
2021/09/04 09:45:54;;;;;;;1.83;1.00;;;18.60;49.80;;;;;;4972350;28;20217;-51
2021/09/04 09:48:25;;;;;;;2.38;1.02;;;18.60;49.20;;;;;;4973715;28;20542;-49
2021/09/04 09:50:55;;;;;;;1.33;0.90;;;18.60;49.20;;;;;;4973625;28;20249;-48
2021/09/04 09:53:26;;;;;;;0.93;0.90;;;18.60;49.20;;;;;;4972742;28;20234;-49
2021/09/04 09:55:58;;;;;;;1.38;0.70;;;18.50;49.20;;;;;;4972550;28;20225;-51
2021/09/04 09:58:29;;;;;;;1.27;1.00;;;18.50;49.20;;;;;;4958645;28;20697;-49
2021/09/04 10:01:01;;;;;;;0.98;0.82;;;18.50;49.20;;;;;;4953450;28;20278;-50
2021/09/04 10:03:33;;;;;;;0.90;0.80;;;18.50;49.20;;;;;;4953432;28;20237;-45
2021/09/04 10:06:03;;;;;;;1.48;0.80;;;18.50;49.20;;;;;;4953670;28;20698;-53
2021/09/04 10:08:34;;;;;;;1.15;0.90;;;18.50;49.20;;;;;;4952460;28;20242;-46
2021/09/04 10:11:06;;;;;;;0.95;0.88;;;18.40;49.20;;;;;;4952878;28;20798;-50
2021/09/04 10:13:37;;;;;;;0.95;0.75;;;18.40;49.20;;;;;;4956138;28;20204;-52
2021/09/04 10:16:09;;;;;;;2.85;1.13;;;18.40;49.30;;;;;;4952856;28;20286;-47
2021/09/04 10:18:41;;;;;;;0.60;0.60;;;18.40;49.30;;;;;;4953393;28;20878;-48
2021/09/04 10:21:12;;;;;;;1.45;0.80;;;18.40;49.30;;;;;;4953426;28;20289;-49
2021/09/04 10:23:43;;;;;;;0.80;0.80;;;18.30;49.40;;;;;;4953868;28;20247;-47
2021/09/04 10:26:32;;;;;;;1.10;0.85;;;18.40;49.50;;;;;;4953081;28;20305;-49
2021/09/04 10:29:14;;;;;;;1.10;0.80;;;18.30;49.50;;;;;;5107907;27;20599;-58
2021/09/04 10:31:49;;;;;;;1.10;0.80;;;18.30;49.50;;;;;;5108128;28;20197;-51
2021/09/04 10:34:20;;;;;;;0.80;0.80;;;18.30;49.50;;;;;;5108636;28;20227;-45
2021/09/04 10:37:06;;;;;;;0.77;0.75;;;18.30;49.50;;;;;;5106567;28;20275;-50
2021/09/04 10:39:53;;;;;;;0.80;0.73;;;18.30;49.50;;;;;;5107542;28;20249;-51
2021/09/04 10:42:28;;;;;;;0.90;0.80;;;18.30;49.60;;;;;;5108291;28;20229;-47
2021/09/04 10:45:07;;;;;;;1.00;0.90;;;18.30;49.50;;;;;;5108745;28;20258;-56
2021/09/04 10:47:44;;;;;;;1.48;0.90;;;18.30;49.60;;;;;;5107123;28;20278;-49
2021/09/04 10:50:18;;;;;;;0.82;0.80;;;18.20;49.50;;;;;;5107335;28;20260;-55
2021/09/04 10:53:05;;;;;;;1.05;0.80;;;18.20;49.60;;;;;;5107475;28;20229;-52
2021/09/04 10:55:36;;;;;;;1.48;0.73;;;18.20;49.50;;;;;;5106972;28;20646;-48
2021/09/04 10:58:07;;;;;;;0.68;0.68;;;18.20;49.60;;;;;;5107565;28;20299;-52
2021/09/04 11:00:46;;;;;;;0.70;0.70;;;18.20;49.60;;;;;;5106943;28;20731;-47
2021/09/04 11:03:17;;;;;;;1.70;0.90;;;18.10;49.60;;;;;;5107394;28;20661;-51
2021/09/04 11:05:54;;;;;;;1.23;0.88;;;18.10;49.60;;;;;;5107523;28;20746;-50
2021/09/04 11:08:47;;;;;;;1.05;0.82;;;18.10;49.70;;;;;;5107135;28;20645;-45
2021/09/04 11:11:31;;;;;;;0.70;0.70;;;18.10;49.70;;;;;;5108124;28;20233;-52
2021/09/04 11:14:02;;;;;;;2.22;0.82;;;18.10;49.80;;;;;;5108347;28;20205;-47
2021/09/04 11:16:58;;;;;;;0.80;0.80;;;18.10;49.70;;;;;;5108040;28;20194;-47
2021/09/04 11:19:31;;;;;;;1.15;0.80;;;18.10;49.70;;;;;;5094570;28;20693;-52
2021/09/04 11:22:10;;;;;;;1.65;1.00;;;18.10;49.70;;;;;;5107834;28;20197;-56
2021/09/04 11:24:40;;;;;;;1.10;1.00;;;18.10;49.80;;;;;;5108384;28;20193;-50
2021/09/04 11:27:11;;;;;;;1.08;0.90;;;18.00;49.70;;;;;;5107129;28;20240;-46
2021/09/04 11:29:47;;;;;;;1.83;0.90;;;18.00;49.70;;;;;;5107213;28;20667;-47
2021/09/04 11:32:19;;;;;;;2.03;0.90;;;18.00;49.80;;;;;;5107511;28;20193;-49
2021/09/04 11:34:51;;;;;;;1.02;0.93;;;18.00;49.80;;;;;;5107841;28;20606;-48
2021/09/04 11:37:25;;;;;;;2.42;1.08;;;18.00;49.80;;;;;;5107560;28;20281;-52
2021/09/04 11:39:57;;;;;;;1.08;0.80;;;18.00;49.80;;;;;;5097617;28;20831;-47
2021/09/04 11:42:27;;;;;;;1.55;1.10;;;18.00;49.80;;;;;;5093941;28;20256;-52
2021/09/04 11:44:58;;;;;;;2.97;1.20;;;18.00;49.90;;;;;;5094011;28;20248;-50
2021/09/04 11:47:30;;;;;;;2.10;1.10;;;18.00;49.90;;;;;;5093656;28;20304;-49
2021/09/04 11:50:01;;;;;;;1.55;0.90;;;18.00;50.00;;;;;;5093541;28;20246;-50
2021/09/04 11:52:32;;;;;;;1.42;1.10;;;17.90;50.00;;;;;;5096756;28;20282;-49
2021/09/04 11:55:11;;;;;;;2.13;1.30;;;17.90;50.00;;;;;;5093815;28;20202;-55
2021/09/04 11:57:41;;;;;;;2.47;1.02;;;17.90;49.90;;;;;;5093470;28;20260;-47
2021/09/04 12:00:14;;;;;;;2.40;1.17;;;17.90;50.00;;;;;;5093095;28;20532;-47
2021/09/04 12:02:50;;;;;;;3.55;1.30;;;17.90;49.90;;;;;;5093248;28;20248;-47
2021/09/04 12:05:21;;;;;;;1.17;0.98;;;17.90;49.90;;;;;;5093160;28;20198;-47
2021/09/04 12:07:52;;;;;;;2.28;1.20;;;17.90;49.90;;;;;;5096033;28;20245;-46
2021/09/04 12:10:25;;;;;;;2.25;1.35;;;17.90;50.00;;;;;;5093834;28;20256;-48
2021/09/04 12:12:57;;;;;;;2.35;1.02;;;17.80;49.90;;;;;;5093717;28;20190;-46
2021/09/04 12:15:27;;;;;;;2.90;1.20;;;17.80;49.90;;;;;;5093852;28;20194;-46
2021/09/04 12:18:01;;;;;;;2.80;1.20;;;17.80;50.00;;;;;;5093754;28;20238;-46
2021/09/04 12:20:35;;;;;;;2.65;1.35;;;17.80;50.00;;;;;;5093077;28;20241;-47
2021/09/04 12:23:16;;;;;;;2.70;1.30;;;17.80;50.60;;;;;;5092943;28;20672;-54
2021/09/04 12:25:46;;;;;;;1.27;1.10;;;17.80;50.10;;;;;;5092191;28;20280;-45
2021/09/04 12:28:24;;;;;;;2.00;1.33;;;17.80;50.00;;;;;;5092304;28;20260;-46
2021/09/04 12:31:05;;;;;;;3.00;1.45;;;17.80;50.00;;;;;;5092865;28;20214;-48
2021/09/04 12:33:58;;;;;;;2.33;1.30;;;17.80;50.10;;;;;;5092469;28;20650;-50
2021/09/04 12:36:39;;;;;;;1.77;1.30;;;17.80;50.10;;;;;;5092606;28;20362;-48
2021/09/04 12:39:18;;;;;;;4.30;1.50;;;17.80;50.10;;;;;;5092788;28;20249;-48
2021/09/04 12:41:49;;;;;;;1.38;1.15;;;17.80;50.10;;;;;;5093058;28;20185;-46
2021/09/04 12:44:19;;;;;;;2.47;1.13;;;17.80;50.10;;;;;;5093210;28;20231;-46
2021/09/04 12:46:54;;;;;;;2.75;1.25;;;17.70;50.10;;;;;;5092828;28;20230;-50
2021/09/04 12:49:30;;;;;;;3.25;1.38;;;17.70;50.10;;;;;;5092890;28;20633;-46
2021/09/04 12:52:11;;;;;;;3.20;1.50;;;17.70;50.10;;;;;;5092021;28;20233;-49
2021/09/04 12:54:43;;;;;;;2.22;1.20;;;17.70;50.10;;;;;;5092954;28;20678;-51
2021/09/04 12:57:17;;;;;;;1.58;1.05;;;17.70;50.20;;;;;;5092313;28;20665;-45
2021/09/04 12:59:49;;;;;;;1.60;1.23;;;17.70;50.20;;;;;;5092527;28;20249;-51
2021/09/04 13:02:20;;;;;;;1.58;1.10;;;17.70;50.20;;;;;;5092917;28;20597;-51
2021/09/04 13:04:55;;;;;;;2.03;1.20;;;17.70;50.20;;;;;;5092595;28;20566;-50
2021/09/04 13:07:25;;;;;;;2.60;1.00;;;17.60;50.20;;;;;;5092734;28;20229;-49
2021/09/04 13:09:56;;;;;;;2.55;1.40;;;17.60;50.20;;;;;;5091896;28;20261;-47
2021/09/04 13:12:26;;;;;;;1.50;1.20;;;17.60;50.20;;;;;;5091609;28;20276;-47